Time;durP1;ratioP1;P1;durP2;ratioP2;P2;SDS_P1;SDS_P2;PMS_P1;PMS_P2;Temp;Humidity;BMP_temperature;BMP_pressure;BME280_temperature;BME280_humidity;BME280_pressure;Samples;Min_cycle;Max_cycle;Signal;HPM_P1;HPM_P2
2021/06/30 00:01:48;;;;;;;0.80;0.80;;;15.70;99.90;;;;;;5033639;28;20438;-83
2021/06/30 00:04:14;;;;;;;0.97;0.93;;;15.80;99.90;;;;;;5033560;28;20793;-83
2021/06/30 00:06:41;;;;;;;1.67;0.90;;;15.70;99.90;;;;;;5033345;28;20486;-83
2021/06/30 00:09:08;;;;;;;1.23;0.97;;;15.70;99.90;;;;;;5033749;28;20439;-83
2021/06/30 00:11:34;;;;;;;2.87;1.03;;;15.70;99.90;;;;;;5033402;28;20938;-84
2021/06/30 00:14:01;;;;;;;1.37;1.00;;;15.70;99.90;;;;;;5033420;28;20455;-84
2021/06/30 00:16:32;;;;;;;1.03;0.93;;;15.70;99.90;;;;;;5033678;28;20454;-84
2021/06/30 00:18:59;;;;;;;1.33;0.70;;;15.70;99.90;;;;;;5033704;28;20622;-84
2021/06/30 00:21:27;;;;;;;0.87;0.87;;;15.70;99.90;;;;;;5033502;28;20953;-84
2021/06/30 00:23:54;;;;;;;1.57;0.90;;;15.70;99.90;;;;;;5033531;28;20454;-84
2021/06/30 00:26:21;;;;;;;0.80;0.80;;;15.60;99.90;;;;;;5033438;28;20811;-84
2021/06/30 00:28:48;;;;;;;0.80;0.80;;;15.60;99.90;;;;;;5033107;28;21020;-84
2021/06/30 00:31:16;;;;;;;1.00;0.80;;;15.60;99.90;;;;;;5033179;28;20453;-83
2021/06/30 00:33:45;;;;;;;0.80;0.80;;;15.50;99.90;;;;;;5033259;28;20452;-84
2021/06/30 00:36:11;;;;;;;0.90;0.90;;;15.60;99.90;;;;;;5033389;28;20451;-83
2021/06/30 00:38:39;;;;;;;1.10;1.00;;;15.60;99.90;;;;;;5033047;28;20830;-83
2021/06/30 00:41:05;;;;;;;2.73;0.90;;;15.60;99.90;;;;;;5033308;28;20447;-84
2021/06/30 00:43:32;;;;;;;1.20;1.10;;;15.60;99.90;;;;;;5033066;28;20938;-84
2021/06/30 00:45:59;;;;;;;0.70;0.70;;;15.50;99.90;;;;;;5032731;28;20497;-84
2021/06/30 00:48:26;;;;;;;0.80;0.80;;;15.50;99.90;;;;;;5033163;28;20485;-84
2021/06/30 00:50:54;;;;;;;0.80;0.80;;;15.50;99.90;;;;;;5032972;28;20529;-83
2021/06/30 00:53:21;;;;;;;1.63;0.80;;;15.50;99.90;;;;;;5032891;28;20964;-84
2021/06/30 00:55:51;;;;;;;1.20;0.70;;;15.40;99.90;;;;;;5033214;28;20449;-79
2021/06/30 00:58:18;;;;;;;2.30;0.90;;;15.40;99.90;;;;;;5032989;28;20474;-79
2021/06/30 01:00:44;;;;;;;0.70;0.70;;;15.40;99.90;;;;;;5033051;28;20458;-79
2021/06/30 01:03:11;;;;;;;0.80;0.80;;;15.30;99.90;;;;;;5033119;28;20450;-79
2021/06/30 01:05:38;;;;;;;1.10;0.80;;;15.40;99.90;;;;;;5032622;28;20479;-79
2021/06/30 01:08:07;;;;;;;0.80;0.73;;;15.40;99.90;;;;;;5032950;28;20474;-78
2021/06/30 01:10:34;;;;;;;0.73;0.70;;;15.30;99.90;;;;;;5032708;28;20801;-79
2021/06/30 01:13:03;;;;;;;1.63;0.80;;;15.30;99.90;;;;;;5032970;28;20461;-79
2021/06/30 01:15:30;;;;;;;0.90;0.90;;;15.30;99.90;;;;;;5032621;28;20443;-78
2021/06/30 01:17:57;;;;;;;0.80;0.80;;;15.20;99.90;;;;;;5032813;28;20471;-79
2021/06/30 01:20:24;;;;;;;0.70;0.70;;;15.20;99.90;;;;;;5032623;28;20454;-78
2021/06/30 01:23:08;;;;;;;0.60;0.60;;;15.20;99.90;;;;;;5032855;28;20449;-78
2021/06/30 01:25:35;;;;;;;0.93;0.77;;;15.10;99.90;;;;;;5032542;28;20474;-78
2021/06/30 01:28:02;;;;;;;2.00;0.73;;;15.00;99.90;;;;;;5032751;28;20474;-77
2021/06/30 01:30:29;;;;;;;0.93;0.93;;;14.90;99.90;;;;;;5032809;28;20442;-77
2021/06/30 01:32:55;;;;;;;4.73;1.50;;;14.80;99.90;;;;;;5032798;28;20820;-78
2021/06/30 01:35:23;;;;;;;1.83;0.80;;;14.70;99.90;;;;;;5032744;28;20449;-79
2021/06/30 01:37:50;;;;;;;0.80;0.70;;;14.70;99.90;;;;;;5032464;28;20835;-79
2021/06/30 01:40:20;;;;;;;0.70;0.60;;;14.60;99.90;;;;;;5032851;28;20462;-78
2021/06/30 01:42:48;;;;;;;0.90;0.73;;;14.40;99.90;;;;;;5032471;28;20444;-78
2021/06/30 01:45:15;;;;;;;1.27;0.60;;;14.20;99.90;;;;;;5035013;28;20482;-78
2021/06/30 01:47:42;;;;;;;0.70;0.70;;;14.10;99.90;;;;;;5036052;28;21000;-79
2021/06/30 01:50:11;;;;;;;1.33;0.60;;;14.00;99.90;;;;;;5036042;28;20451;-78
2021/06/30 01:52:38;;;;;;;0.60;0.60;;;13.90;99.90;;;;;;5036337;28;20454;-78
2021/06/30 01:55:07;;;;;;;0.70;0.70;;;13.90;99.90;;;;;;5036285;28;20468;-78
2021/06/30 01:57:39;;;;;;;0.90;0.70;;;13.90;99.90;;;;;;5035796;28;20957;-78
2021/06/30 02:00:07;;;;;;;0.77;0.60;;;13.90;99.90;;;;;;5035919;28;20902;-78
2021/06/30 02:02:34;;;;;;;1.60;0.63;;;13.70;99.90;;;;;;5035879;28;20805;-80
2021/06/30 02:05:08;;;;;;;0.50;0.50;;;13.60;99.90;;;;;;5036082;28;20466;-78
2021/06/30 02:07:35;;;;;;;0.50;0.50;;;13.50;99.90;;;;;;5035984;28;20522;-77
2021/06/30 02:10:03;;;;;;;0.47;0.47;;;13.50;99.90;;;;;;5035990;28;20442;-79
2021/06/30 02:12:30;;;;;;;1.07;0.60;;;13.50;99.90;;;;;;5035949;28;20453;-77
2021/06/30 02:14:58;;;;;;;0.50;0.50;;;13.50;99.90;;;;;;5035901;28;20454;-77
2021/06/30 02:17:24;;;;;;;1.30;0.50;;;13.60;99.90;;;;;;5035799;28;20473;-77
2021/06/30 02:19:51;;;;;;;0.50;0.43;;;13.60;99.90;;;;;;5035860;28;20446;-77
2021/06/30 02:22:18;;;;;;;0.50;0.50;;;13.60;99.90;;;;;;5035790;28;20450;-77
2021/06/30 02:24:45;;;;;;;0.50;0.50;;;13.60;99.90;;;;;;5035483;28;20528;-77
2021/06/30 02:27:12;;;;;;;0.60;0.57;;;13.60;99.90;;;;;;5035269;28;20489;-77
2021/06/30 02:29:39;;;;;;;0.50;0.50;;;13.60;99.90;;;;;;5035606;28;20461;-77
2021/06/30 02:32:08;;;;;;;0.80;0.43;;;13.50;99.90;;;;;;5035372;28;20442;-80
2021/06/30 02:34:35;;;;;;;0.50;0.50;;;13.50;99.90;;;;;;5035550;28;20821;-77
2021/06/30 02:37:02;;;;;;;0.40;0.40;;;13.40;99.90;;;;;;5035447;28;20473;-77
2021/06/30 02:39:28;;;;;;;3.47;0.50;;;13.40;99.90;;;;;;5035454;28;20457;-77
2021/06/30 02:41:55;;;;;;;0.40;0.40;;;13.40;99.90;;;;;;5035451;28;20450;-77
2021/06/30 02:44:22;;;;;;;0.90;0.40;;;13.40;99.90;;;;;;5035364;28;20450;-78
2021/06/30 02:46:49;;;;;;;0.40;0.40;;;13.40;99.90;;;;;;5034788;28;20490;-77
2021/06/30 02:49:17;;;;;;;0.40;0.40;;;13.40;99.90;;;;;;5035282;28;20462;-77
2021/06/30 02:51:44;;;;;;;0.40;0.40;;;13.40;99.90;;;;;;5035043;28;20439;-77
2021/06/30 02:54:11;;;;;;;0.70;0.43;;;13.30;99.90;;;;;;5035431;28;20435;-78
2021/06/30 02:56:37;;;;;;;0.70;0.50;;;13.20;99.90;;;;;;5034772;28;20473;-77
2021/06/30 02:59:04;;;;;;;0.40;0.40;;;13.20;99.90;;;;;;5034839;28;20934;-79
2021/06/30 03:01:31;;;;;;;0.70;0.50;;;13.20;99.90;;;;;;5035073;28;20794;-77
2021/06/30 03:03:58;;;;;;;0.50;0.50;;;13.20;99.90;;;;;;5034960;28;20459;-77
2021/06/30 03:06:26;;;;;;;0.60;0.50;;;13.20;99.90;;;;;;5034900;28;20494;-78
2021/06/30 03:08:53;;;;;;;0.67;0.40;;;13.20;99.90;;;;;;5034597;28;21001;-78
2021/06/30 03:11:19;;;;;;;0.50;0.50;;;13.10;99.90;;;;;;5034867;28;20447;-79
2021/06/30 03:13:46;;;;;;;0.40;0.40;;;13.10;99.90;;;;;;5034731;28;20815;-78
2021/06/30 03:16:15;;;;;;;0.70;0.50;;;13.10;99.90;;;;;;5034769;28;20450;-78
2021/06/30 03:18:42;;;;;;;0.50;0.50;;;13.00;99.90;;;;;;5034401;28;20801;-78
2021/06/30 03:21:09;;;;;;;0.80;0.60;;;13.00;99.90;;;;;;5034693;28;20451;-78
2021/06/30 03:23:37;;;;;;;0.43;0.43;;;13.10;99.90;;;;;;5034621;28;20454;-78
2021/06/30 03:26:04;;;;;;;0.50;0.50;;;13.10;99.90;;;;;;5034140;28;20822;-79
2021/06/30 03:28:30;;;;;;;0.40;0.40;;;13.10;99.90;;;;;;5034154;28;20837;-78
2021/06/30 03:30:57;;;;;;;0.50;0.50;;;13.10;99.90;;;;;;5034500;28;20838;-79
2021/06/30 03:33:24;;;;;;;0.50;0.50;;;13.00;99.90;;;;;;5034434;28;20442;-78
2021/06/30 03:35:50;;;;;;;1.73;0.53;;;13.00;99.90;;;;;;5034368;28;20453;-79
2021/06/30 03:38:17;;;;;;;0.50;0.50;;;13.00;99.90;;;;;;5034287;28;20467;-78
2021/06/30 03:40:46;;;;;;;0.50;0.50;;;13.10;99.90;;;;;;5034287;28;20454;-79
2021/06/30 03:43:12;;;;;;;0.50;0.50;;;13.10;99.90;;;;;;5034233;28;20451;-79
2021/06/30 03:45:39;;;;;;;0.50;0.50;;;13.10;99.90;;;;;;5033689;28;21112;-78
2021/06/30 03:48:06;;;;;;;1.17;0.50;;;13.10;99.90;;;;;;5033680;28;20501;-79
2021/06/30 03:50:34;;;;;;;0.60;0.60;;;13.00;99.90;;;;;;5034650;28;20447;-79
2021/06/30 03:53:00;;;;;;;0.80;0.60;;;13.00;99.90;;;;;;5034062;28;20454;-79
2021/06/30 03:55:27;;;;;;;0.60;0.53;;;13.00;99.90;;;;;;5034020;28;20446;-79
2021/06/30 03:57:55;;;;;;;0.83;0.50;;;13.00;99.90;;;;;;5033894;28;20828;-79
2021/06/30 04:00:26;;;;;;;0.50;0.50;;;13.00;99.90;;;;;;5033878;28;20454;-78
2021/06/30 04:02:53;;;;;;;2.60;0.50;;;13.10;99.90;;;;;;5033887;28;20435;-78
2021/06/30 04:05:20;;;;;;;0.40;0.40;;;13.10;99.90;;;;;;5033834;28;20501;-79
2021/06/30 04:07:46;;;;;;;0.60;0.60;;;13.00;99.90;;;;;;5033011;28;20489;-79
2021/06/30 04:10:13;;;;;;;0.53;0.53;;;12.90;99.90;;;;;;5033757;28;20451;-78
2021/06/30 04:12:40;;;;;;;0.60;0.60;;;13.00;99.90;;;;;;5033735;28;20454;-80
2021/06/30 04:15:10;;;;;;;0.40;0.40;;;13.00;99.90;;;;;;5033685;28;20446;-78
2021/06/30 04:17:36;;;;;;;0.50;0.50;;;13.00;99.90;;;;;;5033483;28;20836;-78
2021/06/30 04:20:04;;;;;;;1.47;0.60;;;13.10;99.90;;;;;;5033578;28;20454;-79
2021/06/30 04:22:31;;;;;;;0.80;0.60;;;13.10;99.90;;;;;;5033473;28;20446;-79
2021/06/30 04:24:58;;;;;;;3.63;0.60;;;13.10;99.90;;;;;;5033538;28;20832;-79
2021/06/30 04:27:25;;;;;;;0.80;0.50;;;13.10;99.90;;;;;;5033425;28;20514;-79
2021/06/30 04:29:52;;;;;;;1.17;0.63;;;13.20;99.90;;;;;;5033640;28;20509;-79
2021/06/30 04:32:20;;;;;;;0.60;0.60;;;13.30;99.90;;;;;;5033603;28;20455;-80
2021/06/30 04:34:47;;;;;;;1.33;0.50;;;13.30;99.90;;;;;;5033512;28;20457;-78
2021/06/30 04:37:13;;;;;;;0.60;0.60;;;13.30;99.90;;;;;;5034117;28;20462;-78
2021/06/30 04:39:40;;;;;;;1.60;0.60;;;13.40;99.90;;;;;;5033470;28;20465;-80
2021/06/30 04:42:07;;;;;;;0.50;0.50;;;13.50;99.90;;;;;;5033305;28;20442;-80
2021/06/30 04:44:34;;;;;;;0.80;0.60;;;13.40;99.90;;;;;;5032903;28;20954;-80
2021/06/30 04:47:00;;;;;;;0.60;0.60;;;13.50;99.90;;;;;;5033084;28;20490;-80
2021/06/30 04:49:28;;;;;;;0.60;0.60;;;13.50;99.90;;;;;;5033209;28;20451;-80
2021/06/30 04:51:55;;;;;;;0.70;0.70;;;13.60;99.90;;;;;;5032876;28;20962;-80
2021/06/30 04:54:23;;;;;;;0.50;0.50;;;13.60;99.90;;;;;;5033123;28;20447;-80
2021/06/30 04:56:49;;;;;;;1.03;0.57;;;13.60;99.90;;;;;;5033049;28;20451;-80
2021/06/30 04:59:17;;;;;;;0.80;0.80;;;13.70;99.90;;;;;;5032820;28;20438;-80
2021/06/30 05:01:44;;;;;;;0.60;0.60;;;13.60;99.90;;;;;;5033096;28;20462;-80
2021/06/30 05:04:11;;;;;;;1.00;0.70;;;13.70;99.90;;;;;;5033046;28;20443;-81
2021/06/30 05:06:39;;;;;;;0.63;0.63;;;13.70;99.90;;;;;;5032939;28;20446;-80
2021/06/30 05:09:05;;;;;;;0.70;0.70;;;13.70;99.90;;;;;;5032835;28;20462;-80
2021/06/30 05:11:32;;;;;;;0.70;0.60;;;13.70;99.90;;;;;;5033175;28;20435;-80
2021/06/30 05:13:59;;;;;;;0.63;0.63;;;13.70;99.90;;;;;;5032891;28;20454;-81
2021/06/30 05:16:26;;;;;;;0.70;0.70;;;13.70;99.90;;;;;;5032623;28;20823;-81
2021/06/30 05:18:53;;;;;;;0.60;0.60;;;13.70;99.90;;;;;;5035311;28;20475;-80
2021/06/30 05:21:21;;;;;;;0.80;0.80;;;13.70;99.90;;;;;;5036955;28;20457;-80
2021/06/30 05:23:49;;;;;;;0.70;0.70;;;13.70;99.90;;;;;;5036909;28;20492;-80
2021/06/30 05:26:16;;;;;;;0.60;0.60;;;13.70;99.90;;;;;;5036808;28;20462;-80
2021/06/30 05:28:43;;;;;;;0.80;0.80;;;13.80;99.90;;;;;;5036615;28;20498;-80
2021/06/30 05:31:09;;;;;;;1.63;0.70;;;13.80;99.90;;;;;;5036727;28;20450;-80
2021/06/30 05:33:36;;;;;;;0.50;0.50;;;13.90;99.90;;;;;;5036341;28;20950;-80
2021/06/30 05:36:04;;;;;;;0.63;0.60;;;14.00;99.90;;;;;;5036635;28;20458;-80
2021/06/30 05:38:31;;;;;;;0.70;0.70;;;14.10;99.90;;;;;;5036249;28;20970;-80
2021/06/30 05:40:59;;;;;;;2.27;0.77;;;14.10;99.90;;;;;;5036581;28;20446;-80
2021/06/30 05:43:26;;;;;;;0.60;0.60;;;14.30;99.90;;;;;;5036438;28;20454;-80
2021/06/30 05:45:52;;;;;;;0.50;0.50;;;14.40;99.90;;;;;;5036059;28;20511;-80
2021/06/30 05:48:19;;;;;;;0.60;0.60;;;14.50;99.90;;;;;;5036239;28;20508;-80
2021/06/30 05:50:46;;;;;;;0.70;0.70;;;14.60;99.90;;;;;;5036445;28;20450;-80
2021/06/30 05:53:12;;;;;;;0.60;0.60;;;14.70;99.90;;;;;;5036302;28;20481;-80
2021/06/30 05:55:39;;;;;;;1.27;0.70;;;14.80;99.90;;;;;;5036295;28;20450;-80
2021/06/30 05:58:07;;;;;;;0.90;0.60;;;14.90;99.90;;;;;;5036243;28;20942;-80
2021/06/30 06:00:34;;;;;;;0.60;0.60;;;15.00;99.90;;;;;;5036170;28;20447;-80
2021/06/30 06:03:01;;;;;;;0.80;0.60;;;15.20;99.90;;;;;;5036133;28;20450;-80
2021/06/30 06:05:28;;;;;;;0.50;0.50;;;15.20;99.90;;;;;;5036043;28;20454;-79
2021/06/30 06:07:54;;;;;;;5.03;0.60;;;15.20;99.90;;;;;;5035774;28;20478;-80
2021/06/30 06:10:21;;;;;;;0.50;0.50;;;15.40;99.90;;;;;;5035997;28;20446;-80
2021/06/30 06:12:49;;;;;;;0.60;0.60;;;15.60;99.90;;;;;;5036004;28;20455;-80
2021/06/30 06:15:17;;;;;;;0.50;0.50;;;15.90;99.90;;;;;;5035917;28;20443;-80
2021/06/30 06:17:44;;;;;;;2.10;0.60;;;16.00;99.90;;;;;;5035452;28;20470;-80
2021/06/30 06:20:12;;;;;;;0.63;0.63;;;16.00;99.90;;;;;;5035608;28;20949;-80
2021/06/30 06:22:39;;;;;;;0.57;0.50;;;16.00;99.90;;;;;;5036019;28;20446;-80
2021/06/30 06:25:08;;;;;;;0.50;0.50;;;16.10;99.90;;;;;;5035847;28;20458;-80
2021/06/30 06:27:35;;;;;;;0.93;0.50;;;16.20;99.90;;;;;;5035544;28;20482;-80
2021/06/30 06:30:02;;;;;;;1.77;0.50;;;16.20;99.90;;;;;;5035036;28;20435;-81
2021/06/30 06:32:30;;;;;;;0.70;0.60;;;16.10;99.90;;;;;;5035628;28;20438;-81
2021/06/30 06:34:57;;;;;;;0.60;0.60;;;16.20;99.90;;;;;;5035377;28;20435;-81
2021/06/30 06:37:23;;;;;;;0.63;0.50;;;16.30;99.90;;;;;;5035967;28;20455;-81
2021/06/30 06:39:50;;;;;;;0.70;0.60;;;16.40;99.90;;;;;;5035722;28;20438;-81
2021/06/30 06:42:17;;;;;;;0.70;0.70;;;16.60;99.90;;;;;;5035509;28;20486;-81
2021/06/30 06:44:45;;;;;;;0.50;0.50;;;16.70;99.90;;;;;;5035373;28;20431;-81
2021/06/30 06:47:12;;;;;;;0.60;0.50;;;16.80;99.90;;;;;;5035469;28;20550;-82
2021/06/30 06:49:40;;;;;;;0.50;0.40;;;17.00;99.90;;;;;;5035538;28;20435;-81
2021/06/30 06:52:07;;;;;;;0.50;0.50;;;17.20;99.90;;;;;;5035488;28;20438;-82
2021/06/30 06:54:34;;;;;;;0.60;0.60;;;17.40;99.90;;;;;;5035136;28;20438;-81
2021/06/30 06:57:00;;;;;;;0.40;0.40;;;17.50;99.90;;;;;;5035307;28;20463;-82
2021/06/30 06:59:27;;;;;;;0.50;0.50;;;17.70;99.90;;;;;;5035350;28;20427;-82
2021/06/30 07:01:54;;;;;;;0.67;0.50;;;17.80;99.90;;;;;;5035021;28;20439;-82
2021/06/30 07:04:21;;;;;;;0.87;0.30;;;17.80;99.90;;;;;;5035072;28;20824;-82
2021/06/30 07:06:49;;;;;;;0.50;0.50;;;17.80;99.90;;;;;;5034784;28;20922;-82
2021/06/30 07:09:16;;;;;;;0.63;0.60;;;17.90;99.90;;;;;;5035038;28;20841;-82
2021/06/30 07:11:43;;;;;;;0.50;0.50;;;17.80;99.90;;;;;;5034769;28;20439;-82
2021/06/30 07:14:10;;;;;;;0.80;0.60;;;17.80;99.90;;;;;;5034727;28;20935;-82
2021/06/30 07:16:37;;;;;;;0.40;0.40;;;17.80;99.90;;;;;;5034863;28;20457;-83
2021/06/30 07:19:03;;;;;;;0.47;0.43;;;17.70;99.90;;;;;;5034914;28;20450;-83
2021/06/30 07:21:30;;;;;;;0.47;0.47;;;17.60;99.90;;;;;;5034592;28;20521;-82
2021/06/30 07:23:58;;;;;;;0.43;0.43;;;17.50;99.90;;;;;;5034500;28;20902;-82
2021/06/30 07:26:25;;;;;;;2.00;0.40;;;17.50;99.90;;;;;;5034771;28;20447;-82
2021/06/30 07:28:53;;;;;;;2.03;0.50;;;17.40;99.90;;;;;;5034284;28;20841;-83
2021/06/30 07:31:19;;;;;;;0.60;0.50;;;17.20;99.90;;;;;;5034381;28;20933;-83
2021/06/30 07:33:46;;;;;;;0.40;0.40;;;17.10;99.90;;;;;;5034622;28;20817;-83
2021/06/30 07:36:14;;;;;;;0.40;0.40;;;16.90;99.90;;;;;;5034557;28;20814;-83
2021/06/30 07:38:41;;;;;;;0.43;0.43;;;16.70;99.90;;;;;;5034144;28;20994;-83
2021/06/30 07:41:09;;;;;;;0.50;0.40;;;16.60;99.90;;;;;;5033549;28;20880;-84
2021/06/30 07:43:36;;;;;;;0.40;0.30;;;16.40;99.90;;;;;;5034188;28;20454;-82
2021/06/30 07:46:03;;;;;;;0.40;0.40;;;16.20;99.90;;;;;;5033945;28;20854;-82
2021/06/30 07:48:30;;;;;;;0.70;0.50;;;16.00;99.90;;;;;;5034215;28;20556;-82
2021/06/30 07:50:57;;;;;;;0.50;0.40;;;15.80;99.90;;;;;;5033966;28;20454;-82
2021/06/30 07:53:24;;;;;;;0.60;0.40;;;15.70;99.90;;;;;;5034333;28;20431;-81
2021/06/30 07:55:51;;;;;;;0.50;0.50;;;15.60;99.90;;;;;;5034215;28;20443;-82
2021/06/30 07:58:20;;;;;;;0.47;0.47;;;15.70;99.90;;;;;;5033826;28;20841;-83
2021/06/30 08:00:47;;;;;;;0.40;0.40;;;15.80;99.90;;;;;;5034206;28;20501;-83
2021/06/30 08:03:14;;;;;;;0.77;0.40;;;16.00;99.90;;;;;;5034035;28;20451;-82
2021/06/30 08:05:41;;;;;;;0.50;0.40;;;16.20;99.90;;;;;;5034087;28;20542;-82
2021/06/30 08:08:08;;;;;;;0.40;0.40;;;16.20;99.90;;;;;;5033572;28;20486;-82
2021/06/30 08:10:35;;;;;;;0.40;0.40;;;16.30;99.90;;;;;;5033901;28;20451;-82
2021/06/30 08:13:01;;;;;;;0.40;0.40;;;16.40;99.90;;;;;;5033892;28;20431;-82
2021/06/30 08:15:29;;;;;;;0.40;0.40;;;16.70;99.90;;;;;;5033845;28;20439;-81
2021/06/30 08:17:56;;;;;;;1.10;0.40;;;16.90;99.90;;;;;;5033440;28;20466;-83
2021/06/30 08:20:23;;;;;;;0.60;0.50;;;17.10;99.90;;;;;;5033741;28;20481;-82
2021/06/30 08:22:51;;;;;;;0.50;0.50;;;17.10;99.90;;;;;;5033748;28;20813;-83
2021/06/30 08:25:17;;;;;;;1.60;0.90;;;17.10;99.90;;;;;;5033371;28;20942;-82
2021/06/30 08:27:44;;;;;;;0.50;0.50;;;17.00;99.90;;;;;;5033481;28;20497;-81
2021/06/30 08:30:13;;;;;;;0.43;0.43;;;17.00;99.90;;;;;;5033381;28;20458;-83
2021/06/30 08:32:43;;;;;;;0.50;0.50;;;17.30;99.90;;;;;;5033602;28;20447;-83
2021/06/30 08:35:11;;;;;;;0.47;0.47;;;17.60;99.90;;;;;;5033848;28;20431;-83
2021/06/30 08:37:42;;;;;;;0.60;0.50;;;17.80;99.90;;;;;;5033568;28;20466;-83
2021/06/30 08:40:10;;;;;;;0.60;0.50;;;17.80;99.90;;;;;;5033533;28;20484;-82
2021/06/30 08:42:37;;;;;;;0.50;0.50;;;17.80;99.90;;;;;;5033626;28;20427;-84
2021/06/30 08:45:04;;;;;;;0.40;0.30;;;18.00;99.90;;;;;;5033276;28;20489;-84
2021/06/30 08:47:35;;;;;;;0.50;0.50;;;18.00;99.90;;;;;;5033011;28;20474;-85
2021/06/30 08:50:05;;;;;;;0.73;0.73;;;17.90;99.90;;;;;;5033280;28;20791;-84
2021/06/30 08:52:34;;;;;;;1.20;0.50;;;17.70;99.90;;;;;;5032893;28;20489;-83
2021/06/30 08:55:02;;;;;;;0.50;0.50;;;17.50;99.90;;;;;;5033379;28;20442;-84
2021/06/30 08:57:30;;;;;;;0.50;0.50;;;17.30;99.90;;;;;;5033372;28;20471;-84
2021/06/30 08:59:58;;;;;;;0.50;0.50;;;17.20;99.90;;;;;;5033353;28;20438;-84
2021/06/30 09:02:25;;;;;;;0.60;0.50;;;17.10;99.90;;;;;;5033395;28;20442;-85
2021/06/30 09:05:00;;;;;;;1.37;0.50;;;17.00;99.90;;;;;;5033100;28;20469;-85
2021/06/30 09:07:28;;;;;;;1.70;1.20;;;17.10;99.90;;;;;;5033486;28;20552;-85
2021/06/30 09:09:55;;;;;;;0.40;0.40;;;17.20;99.90;;;;;;5033005;28;20465;-85
2021/06/30 09:12:38;;;;;;;0.57;0.50;;;17.30;99.90;;;;;;5033247;28;20773;-84
2021/06/30 09:15:16;;;;;;;0.50;0.50;;;17.40;99.90;;;;;;5033812;28;20431;-84
2021/06/30 09:17:45;;;;;;;0.50;0.50;;;17.40;99.90;;;;;;5032818;28;20466;-84
2021/06/30 09:20:13;;;;;;;0.40;0.40;;;17.60;99.90;;;;;;5033433;28;20462;-83
2021/06/30 09:22:52;;;;;;;0.60;0.50;;;17.70;99.90;;;;;;5033980;28;20442;-83
2021/06/30 09:25:34;;;;;;;0.40;0.40;;;17.80;99.90;;;;;;5033174;28;20438;-84
2021/06/30 09:28:13;;;;;;;0.50;0.50;;;17.80;99.90;;;;;;5032644;28;20466;-84
2021/06/30 09:30:56;;;;;;;0.47;0.47;;;17.70;99.90;;;;;;5033305;28;20435;-84
2021/06/30 09:33:22;;;;;;;0.40;0.40;;;17.60;99.90;;;;;;5032718;28;20438;-84
2021/06/30 09:35:49;;;;;;;0.50;0.50;;;17.30;99.90;;;;;;5033070;28;20441;-84
2021/06/30 09:38:31;;;;;;;0.40;0.40;;;17.20;99.90;;;;;;5033080;28;20471;-84
2021/06/30 09:40:58;;;;;;;0.40;0.30;;;16.90;99.90;;;;;;5032950;28;20521;-86
2021/06/30 09:43:28;;;;;;;0.40;0.40;;;17.00;99.90;;;;;;5033038;28;20431;-86
2021/06/30 09:45:58;;;;;;;0.40;0.40;;;17.30;99.90;;;;;;5032593;28;20487;-85
2021/06/30 09:48:33;;;;;;;0.50;0.40;;;17.90;99.90;;;;;;5032796;28;20532;-86
2021/06/30 09:51:01;;;;;;;1.00;0.40;;;18.20;99.90;;;;;;5032618;28;20929;-83
2021/06/30 09:53:37;;;;;;;0.50;0.50;;;18.60;99.90;;;;;;5032837;28;20435;-83
2021/06/30 09:56:32;;;;;;;0.93;0.50;;;18.90;99.90;;;;;;5032919;28;20438;-82
2021/06/30 09:59:00;;;;;;;1.03;0.40;;;18.80;99.90;;;;;;5032557;28;20931;-84
2021/06/30 10:01:27;;;;;;;0.70;0.50;;;18.80;99.90;;;;;;5033680;28;20462;-83
2021/06/30 10:03:54;;;;;;;0.40;0.40;;;18.80;99.90;;;;;;5032625;28;20529;-81
2021/06/30 10:06:28;;;;;;;0.43;0.43;;;19.10;99.90;;;;;;5035595;28;20430;-81
2021/06/30 10:08:58;;;;;;;0.40;0.40;;;19.20;99.90;;;;;;5036166;28;20490;-81
2021/06/30 10:11:26;;;;;;;1.03;0.40;;;19.40;99.90;;;;;;5036216;28;20427;-81
2021/06/30 10:13:53;;;;;;;0.50;0.50;;;19.80;99.90;;;;;;5036209;28;20439;-81
2021/06/30 10:16:22;;;;;;;0.50;0.50;;;20.40;99.90;;;;;;5036163;28;20419;-80
2021/06/30 10:18:51;;;;;;;1.73;0.53;;;20.90;99.90;;;;;;5035805;28;20466;-81
2021/06/30 10:21:20;;;;;;;0.40;0.40;;;21.20;99.90;;;;;;5036121;28;20424;-82
2021/06/30 10:23:47;;;;;;;0.97;0.60;;;21.50;99.90;;;;;;5036060;28;20886;-81
2021/06/30 10:26:18;;;;;;;0.80;0.50;;;21.50;99.90;;;;;;5035945;28;20502;-81
2021/06/30 10:28:48;;;;;;;2.47;0.80;;;21.30;99.90;;;;;;5035967;28;20498;-81
2021/06/30 10:31:15;;;;;;;0.60;0.60;;;21.10;99.90;;;;;;5035709;28;20438;-81
2021/06/30 10:33:41;;;;;;;2.73;0.70;;;20.60;99.90;;;;;;5035787;28;20418;-80
2021/06/30 10:36:09;;;;;;;0.60;0.50;;;20.40;99.90;;;;;;5036135;28;20453;-80
2021/06/30 10:38:49;;;;;;;0.50;0.50;;;20.30;99.90;;;;;;5035713;28;20496;-80
2021/06/30 10:41:38;;;;;;;0.50;0.50;;;20.20;99.90;;;;;;5036507;28;20430;-80
2021/06/30 10:44:09;;;;;;;0.60;0.50;;;20.20;99.90;;;;;;5035592;28;20438;-80
2021/06/30 10:46:36;;;;;;;1.10;0.40;;;20.40;99.90;;;;;;5035013;28;20489;-80
2021/06/30 10:49:19;;;;;;;0.40;0.40;;;20.30;99.90;;;;;;5035178;28;20470;-80
2021/06/30 10:51:48;;;;;;;0.93;0.57;;;20.10;99.90;;;;;;5035482;28;20434;-80
2021/06/30 10:54:46;;;;;;;0.60;0.50;;;19.80;99.90;;;;;;5035145;28;20439;-80
2021/06/30 10:57:41;;;;;;;0.50;0.50;;;19.50;99.90;;;;;;4935853;29;20451;-80
2021/06/30 11:00:18;;;;;;;0.40;0.40;;;19.20;99.90;;;;;;5031501;28;20462;-80
2021/06/30 11:02:45;;;;;;;1.23;0.60;;;19.10;99.90;;;;;;5035310;28;20489;-80
2021/06/30 11:05:34;;;;;;;0.40;0.40;;;19.10;99.90;;;;;;5035471;28;20864;-80
2021/06/30 11:08:02;;;;;;;0.40;0.40;;;19.40;99.90;;;;;;5035118;28;20507;-80
2021/06/30 11:10:48;;;;;;;0.63;0.57;;;19.80;99.90;;;;;;5035076;28;20534;-79
2021/06/30 11:13:16;;;;;;;0.50;0.50;;;20.10;99.90;;;;;;5034787;28;20505;-80
2021/06/30 11:15:44;;;;;;;1.33;0.50;;;20.20;99.90;;;;;;5034866;28;20434;-79
2021/06/30 11:18:43;;;;;;;1.10;0.50;;;20.30;99.90;;;;;;5034912;28;20552;-80
2021/06/30 11:21:11;;;;;;;1.10;0.47;;;20.20;99.90;;;;;;5034929;28;20485;-80
2021/06/30 11:23:42;;;;;;;0.50;0.50;;;20.10;99.90;;;;;;5034904;28;20450;-79
2021/06/30 11:26:34;;;;;;;0.50;0.50;;;19.80;99.90;;;;;;5034828;28;20434;-80
2021/06/30 11:29:41;;;;;;;0.50;0.50;;;19.60;99.90;;;;;;5034775;28;20514;-80
2021/06/30 11:32:10;;;;;;;0.50;0.50;;;19.50;99.90;;;;;;5034402;28;20457;-81
2021/06/30 11:34:38;;;;;;;0.53;0.53;;;19.10;99.90;;;;;;5034603;28;20447;-82
2021/06/30 11:37:05;;;;;;;0.50;0.50;;;18.50;99.90;;;;;;5034546;28;20470;-81
2021/06/30 11:39:33;;;;;;;0.50;0.50;;;17.90;99.90;;;;;;5034638;28;20431;-83
2021/06/30 11:42:02;;;;;;;0.60;0.60;;;17.40;99.90;;;;;;5034622;28;20446;-83
2021/06/30 11:44:35;;;;;;;1.30;0.73;;;17.20;99.90;;;;;;5034529;28;20462;-83
2021/06/30 11:47:03;;;;;;;0.60;0.60;;;16.90;99.90;;;;;;5034587;28;20466;-81
2021/06/30 11:49:32;;;;;;;0.60;0.60;;;16.90;99.90;;;;;;5034356;28;20478;-82
2021/06/30 11:52:00;;;;;;;0.90;0.60;;;17.00;99.90;;;;;;5034373;28;20416;-81
2021/06/30 11:54:28;;;;;;;0.57;0.57;;;16.90;99.90;;;;;;5034320;28;20434;-82
2021/06/30 11:56:55;;;;;;;0.53;0.53;;;17.00;99.90;;;;;;5033838;28;20825;-81
2021/06/30 11:59:25;;;;;;;1.20;0.60;;;17.20;99.90;;;;;;5034343;28;20411;-82
2021/06/30 12:01:53;;;;;;;0.73;0.73;;;17.50;99.90;;;;;;5034797;28;20847;-83
2021/06/30 12:04:22;;;;;;;0.60;0.50;;;17.70;99.90;;;;;;5034515;28;20526;-82
2021/06/30 12:06:55;;;;;;;0.87;0.60;;;17.80;99.90;;;;;;5034841;28;20525;-83
2021/06/30 12:09:23;;;;;;;0.60;0.60;;;17.90;99.90;;;;;;5034027;28;20471;-83
2021/06/30 12:11:53;;;;;;;0.60;0.60;;;17.80;99.90;;;;;;5033870;28;20438;-82
2021/06/30 12:14:23;;;;;;;1.23;0.60;;;17.80;99.90;;;;;;5034245;28;20434;-82
2021/06/30 12:17:01;;;;;;;0.60;0.60;;;17.70;99.90;;;;;;5033871;28;20485;-83
2021/06/30 12:19:37;;;;;;;0.70;0.70;;;17.70;99.90;;;;;;5033900;28;20458;-83
2021/06/30 12:22:22;;;;;;;0.60;0.60;;;17.70;99.90;;;;;;5034125;28;20442;-83
2021/06/30 12:24:54;;;;;;;0.50;0.50;;;17.70;99.90;;;;;;5034462;28;20552;-83
2021/06/30 12:27:21;;;;;;;2.93;0.60;;;17.70;99.90;;;;;;5032863;28;21001;-83
2021/06/30 12:29:55;;;;;;;0.50;0.50;;;17.60;99.90;;;;;;5033586;28;20478;-83
2021/06/30 12:32:22;;;;;;;0.60;0.60;;;17.60;99.90;;;;;;5033658;28;20435;-83
2021/06/30 12:34:49;;;;;;;0.70;0.70;;;17.70;99.90;;;;;;5033326;28;20439;-83
2021/06/30 12:37:24;;;;;;;0.60;0.60;;;17.80;99.90;;;;;;5033264;28;20458;-83
2021/06/30 12:39:53;;;;;;;0.60;0.60;;;18.10;99.90;;;;;;5033885;28;20517;-83
2021/06/30 12:42:19;;;;;;;0.80;0.80;;;18.20;99.90;;;;;;5033251;28;20929;-83
2021/06/30 12:44:55;;;;;;;0.60;0.60;;;18.40;99.90;;;;;;5033104;28;20465;-82
2021/06/30 12:47:23;;;;;;;0.60;0.60;;;18.60;99.90;;;;;;5033394;28;20469;-82
2021/06/30 12:49:59;;;;;;;0.60;0.60;;;18.80;99.90;;;;;;5033361;28;20471;-83
2021/06/30 12:52:27;;;;;;;0.60;0.60;;;19.00;99.90;;;;;;5033096;28;20435;-82
2021/06/30 12:55:13;;;;;;;0.60;0.60;;;19.10;99.90;;;;;;5033098;28;20450;-82
2021/06/30 12:58:03;;;;;;;0.50;0.50;;;19.10;99.90;;;;;;5033331;28;20911;-82